»·PEaware :: AAY151 KFLG-KELP

AAY151 :: KFLG-KELP

FLIGHT INFORMATION

Flight Status: Arrived
Operator:
Allegiant Air
More flights by this operator :: More flights under this callsign
Pilot: Ben L. (6391)
Aircraft: MCDONNELL-DOUGLAS MD-88
(MD88)
More flights by this aircraft type
Origin: KFLG Flagstaff Pulliam
United States
Destination: KELP El Paso Intl
United States
More flights between these airports :: More routes between these airports
Route: +FLG1 OATES GREBE MOLLY4
File this flight plan on PilotEdge
Remarks:
Altitude:
(Current/Filed)
29,000ft
Speed:
(Current/Filed)
450kts
Departed: 28-Jul-19 04:59 PM
Arrived: 28-Jul-19 05:57 PM
Distance/Time
Traveled:
331nm/0:58
Distance/Time
To Go:
Arrived

Flight Plot

Page will automatically refresh every two minutes.

Flight plan parsing failed; only flown route is shown


Map Options




Map Legend


Flown Route
Filed Route
Departure Airport
Arrival Airport
Navaid (VOR, NDB)
Fix

Horizontal Profiles

Position Reports

Time Latitude Longitude Heading Altitude Ground
Speed
28-Jul-19 16:35 35.138397 -111.674664 350 7018ft 0kts
28-Jul-19 16:36 35.138397 -111.674664 350 7018ft 0kts
28-Jul-19 16:36 35.138397 -111.674664 350 7018ft 0kts
28-Jul-19 16:38 35.138397 -111.674664 350 7017ft 0kts
28-Jul-19 16:38 35.138397 -111.674664 350 7017ft 0kts
28-Jul-19 16:39 35.138397 -111.674664 350 7017ft 0kts
28-Jul-19 16:41 35.138397 -111.674664 350 7017ft 0kts
28-Jul-19 16:41 35.138397 -111.674664 350 7017ft 0kts
28-Jul-19 16:42 35.138397 -111.674664 350 7017ft 0kts
28-Jul-19 16:43 35.138397 -111.674664 350 7017ft 0kts
28-Jul-19 16:44 35.138397 -111.674664 350 7017ft 0kts
28-Jul-19 16:45 35.138397 -111.674664 350 7017ft 0kts
28-Jul-19 16:46 35.138397 -111.674664 350 7017ft 0kts
28-Jul-19 16:47 35.138397 -111.674664 350 7017ft 0kts
28-Jul-19 16:48 35.137910 -111.674761 30 7017ft 2kts
28-Jul-19 16:49 35.137613 -111.675054 38 7017ft 0kts
28-Jul-19 16:50 35.137613 -111.675054 38 7017ft 0kts
28-Jul-19 16:51 35.137613 -111.675054 38 7017ft 0kts
28-Jul-19 16:52 35.137636 -111.675024 47 7017ft 1kts
28-Jul-19 16:53 35.138175 -111.673702 62 7017ft 10kts
28-Jul-19 16:54 35.141965 -111.669286 40 7017ft 18kts
28-Jul-19 16:55 35.146166 -111.664828 42 7017ft 23kts
28-Jul-19 16:56 35.149824 -111.660763 80 7017ft 0kts
28-Jul-19 16:57 35.149824 -111.660763 80 7017ft 0kts
28-Jul-19 16:58 35.143278 -111.666084 222 7017ft 118kts
28-Jul-19 16:59 35.104746 -111.700058 206 8941ft 184kts
28-Jul-19 17:00 35.052093 -111.703024 181 11365ft 203kts
28-Jul-19 17:01 34.984823 -111.704416 182 13113ft 289kts
28-Jul-19 17:02 34.898545 -111.708100 183 13888ft 357kts
28-Jul-19 17:03 34.803800 -111.675288 128 15848ft 382kts
28-Jul-19 17:04 34.751577 -111.560157 119 17890ft 393kts
28-Jul-19 17:05 34.697121 -111.442494 119 19762ft 403kts
28-Jul-19 17:06 34.643089 -111.326029 119 21420ft 411kts
28-Jul-19 17:07 34.586234 -111.203237 119 22961ft 419kts
28-Jul-19 17:08 34.528429 -111.078122 119 24340ft 427kts
28-Jul-19 17:09 34.469770 -110.950860 119 25570ft 434kts
28-Jul-19 17:10 34.410436 -110.821799 118 26713ft 440kts
28-Jul-19 17:11 34.350345 -110.690788 118 27747ft 446kts
28-Jul-19 17:12 34.289614 -110.558065 118 28728ft 450kts
28-Jul-19 17:13 34.229308 -110.425948 118 29247ft 444kts
28-Jul-19 17:14 34.170859 -110.297592 118 29265ft 445kts
28-Jul-19 17:15 34.110659 -110.165072 118 29283ft 445kts
28-Jul-19 17:16 34.051026 -110.033479 118 29284ft 445kts
28-Jul-19 17:17 33.991405 -109.901590 118 29285ft 445kts
28-Jul-19 17:18 33.932632 -109.769917 117 29309ft 445kts
28-Jul-19 17:19 33.875440 -109.642520 117 29329ft 445kts
28-Jul-19 17:20 33.816239 -109.510749 117 29329ft 445kts
28-Jul-19 17:21 33.757294 -109.379241 117 29329ft 445kts
28-Jul-19 17:22 33.710210 -109.273961 118 29328ft 445kts
28-Jul-19 17:23 33.659965 -109.161410 117 29333ft 450kts
28-Jul-19 17:24 33.599397 -109.025431 117 29334ft 467kts
28-Jul-19 17:25 33.537456 -108.885979 116 29333ft 478kts
28-Jul-19 17:26 33.474324 -108.743494 116 29332ft 485kts
28-Jul-19 17:27 33.411463 -108.601252 116 29275ft 478kts
28-Jul-19 17:28 33.349315 -108.460252 116 29220ft 474kts
28-Jul-19 17:29 33.290353 -108.326143 116 29219ft 472kts
28-Jul-19 17:30 33.201976 -108.210938 137 29223ft 471kts
28-Jul-19 17:31 33.107595 -108.101548 134 29220ft 471kts
28-Jul-19 17:32 33.014477 -107.991230 134 29221ft 469kts
28-Jul-19 17:33 32.921713 -107.881169 134 29219ft 467kts
28-Jul-19 17:34 32.831588 -107.774122 134 29218ft 465kts
28-Jul-19 17:35 32.739942 -107.665153 134 29161ft 465kts
28-Jul-19 17:36 32.649648 -107.557692 134 29106ft 448kts
28-Jul-19 17:37 32.562931 -107.454367 134 27273ft 432kts
28-Jul-19 17:38 32.475733 -107.361357 137 25890ft 404kts
28-Jul-19 17:39 32.393594 -107.274784 138 25887ft 408kts
28-Jul-19 17:40 32.307160 -107.183619 138 24256ft 419kts
28-Jul-19 17:41 32.220185 -107.091805 138 21761ft 416kts
28-Jul-19 17:42 32.133335 -107.000051 138 19242ft 412kts
28-Jul-19 17:43 32.055294 -106.903710 107 16727ft 405kts
28-Jul-19 17:44 32.073969 -106.778014 71 14226ft 368kts
28-Jul-19 17:45 32.038506 -106.689963 147 12204ft 303kts
28-Jul-19 17:46 31.967712 -106.637650 147 10895ft 297kts
28-Jul-19 17:47 31.896119 -106.609665 187 9694ft 289kts
28-Jul-19 17:48 31.816766 -106.621909 187 8549ft 281kts
28-Jul-19 17:49 31.740557 -106.633849 187 7524ft 271kts
28-Jul-19 17:50 31.677163 -106.618426 105 7204ft 240kts
28-Jul-19 17:51 31.696232 -106.551969 38 7237ft 225kts
28-Jul-19 17:52 31.732203 -106.497770 55 5907ft 187kts
28-Jul-19 17:53 31.761534 -106.455026 47 4801ft 158kts
28-Jul-19 17:54 31.789545 -106.416268 49 4292ft 150kts
28-Jul-19 17:55 31.813917 -106.382595 49 3931ft 78kts
28-Jul-19 17:56 31.817762 -106.374021 172 3945ft 13kts
28-Jul-19 17:57 31.813625 -106.379226 229 3935ft 35kts
28-Jul-19 17:58 31.805735 -106.389456 221 3926ft 43kts
28-Jul-19 17:59 31.800552 -106.395133 166 3920ft 1kts

Navigation Log

Ident Type
Flight plan parsing failed, navigation log unavailable